< < Back
Terminal Aerodrome Forecast


Current Version              Previous Versions:   1  2  3  4  5  6  7  8  9  

Terminal Aerodrome Forecast

968
FTUS42 KCAE 291100
TAFAGS
TAF
KAGS 291123Z 2912/3012 07004KT P6SM SKC
     FM291900 17005KT P6SM SCT250
     FM300100 VRB03KT P6SM SCT250
     FM300900 23005KT P6SM BKN060=

Latest METAR

555
SAUS70 KWBC 291600 RRA
MTRAGS
METAR KAGS 291553Z 05006KT 10SM CLR 10/M09 A3046 RMK AO2 SLP314
T01001094


USA.gov is the U.S. government's official web portal to all federal, state and local government web resources and services.